Time;durP1;ratioP1;P1;durP2;ratioP2;P2;SDS_P1;SDS_P2;PMS_P1;PMS_P2;Temp;Humidity;BMP_temperature;BMP_pressure;BME280_temperature;BME280_humidity;BME280_pressure;Samples;Min_cycle;Max_cycle;Signal;HPM_P1;HPM_P2
2021/12/06 00:02:02;;;;;;;;;;;;;;;20.40;50.98;99153.41;20377569;28;97044;-77
2021/12/06 00:12:04;;;;;;;;;;;;;;;20.39;51.01;99186.75;20370054;28;97925;-77
2021/12/06 00:22:06;;;;;;;;;;;;;;;20.36;51.07;99194.09;20375883;28;100345;-77
2021/12/06 00:32:07;;;;;;;;;;;;;;;20.34;50.91;99188.16;20378284;28;98341;-76
2021/12/06 00:42:07;;;;;;;;;;;;;;;20.31;51.00;99205.88;20359271;28;100508;-77
2021/12/06 00:52:07;;;;;;;;;;;;;;;20.29;51.06;99185.97;20392564;28;97226;-78
2021/12/06 01:02:09;;;;;;;;;;;;;;;20.28;51.16;99202.69;20392705;28;99403;-78
2021/12/06 01:12:11;;;;;;;;;;;;;;;20.25;50.92;99214.31;20395478;28;97483;-78
2021/12/06 01:33:29;;;;;;;;;;;;;;;20.20;50.83;99177.13;20301143;28;98439;-77
2021/12/06 01:43:24;;;;;;;;;;;;;;;20.20;50.80;99166.63;20395779;28;97100;-78
2021/12/06 01:53:24;;;;;;;;;;;;;;;20.17;50.87;99180.03;20357849;28;97505;-77
2021/12/06 02:03:24;;;;;;;;;;;;;;;20.17;51.01;99181.84;20381398;28;97585;-77
2021/12/06 02:13:28;;;;;;;;;;;;;;;20.15;50.97;99188.06;20390249;28;99698;-76
2021/12/06 02:23:29;;;;;;;;;;;;;;;20.15;50.90;99158.31;20382233;28;97235;-77
2021/12/06 02:33:29;;;;;;;;;;;;;;;20.10;51.04;99158.75;20388832;28;97534;-78
2021/12/06 02:43:30;;;;;;;;;;;;;;;20.09;50.94;99166.75;20382599;28;98637;-76
2021/12/06 02:53:32;;;;;;;;;;;;;;;20.06;50.91;99167.88;20367740;28;97166;-77
2021/12/06 03:03:33;;;;;;;;;;;;;;;20.05;51.01;99194.31;20376876;28;97825;-77
2021/12/06 03:13:33;;;;;;;;;;;;;;;20.03;50.75;99193.59;20375729;28;98067;-77
2021/12/06 03:23:34;;;;;;;;;;;;;;;20.02;50.75;99189.31;20375791;28;97297;-78
2021/12/06 03:33:40;;;;;;;;;;;;;;;20.00;50.98;99192.09;20371162;28;97348;-77
2021/12/06 03:43:41;;;;;;;;;;;;;;;19.98;50.73;99220.28;20365649;28;98761;-78
2021/12/06 03:53:41;;;;;;;;;;;;;;;19.96;51.03;99212.56;20373100;28;99104;-78
2021/12/06 04:03:43;;;;;;;;;;;;;;;19.94;51.01;99193.47;20369519;28;98352;-77
2021/12/06 04:13:44;;;;;;;;;;;;;;;19.95;51.03;99199.56;20345308;28;100696;-77
2021/12/06 04:23:44;;;;;;;;;;;;;;;19.92;50.76;99199.84;20385901;28;96953;-77
2021/12/06 04:33:44;;;;;;;;;;;;;;;19.90;50.98;99202.59;20377083;28;99265;-76
2021/12/06 04:43:45;;;;;;;;;;;;;;;19.89;50.80;99213.25;20390225;28;98204;-77
2021/12/06 04:53:47;;;;;;;;;;;;;;;19.88;50.65;99224.75;20372227;28;99929;-77
2021/12/06 05:03:48;;;;;;;;;;;;;;;19.87;50.74;99237.03;20371724;28;100572;-77
2021/12/06 05:13:51;;;;;;;;;;;;;;;19.98;51.85;99260.56;20336281;28;97954;-77
2021/12/06 05:23:51;;;;;;;;;;;;;;;20.06;51.46;99265.09;20376419;28;98756;-78
2021/12/06 05:33:57;;;;;;;;;;;;;;;20.30;52.79;99279.63;20342814;28;97585;-77
2021/12/06 05:43:57;;;;;;;;;;;;;;;20.55;52.04;99269.47;20356114;28;98668;-78
2021/12/06 05:53:58;;;;;;;;;;;;;;;20.64;51.60;99269.47;20345250;28;98539;-79
2021/12/06 06:04:01;;;;;;;;;;;;;;;20.48;49.03;99275.31;20374592;28;98737;-76
2021/12/06 06:14:03;;;;;;;;;;;;;;;20.14;46.26;99285.44;20330244;28;97255;-79
2021/12/06 06:24:04;;;;;;;;;;;;;;;20.55;47.69;99288.72;20335965;28;101706;-76
2021/12/06 06:34:05;;;;;;;;;;;;;;;20.72;48.41;99312.66;20367594;28;98236;-78
2021/12/06 06:44:05;;;;;;;;;;;;;;;20.83;48.91;99319.56;20365250;28;97644;-78
2021/12/06 06:54:06;;;;;;;;;;;;;;;20.91;48.82;99328.41;20375304;28;97049;-77
2021/12/06 07:04:07;;;;;;;;;;;;;;;20.99;48.49;99347.91;20396930;28;97023;-78
2021/12/06 07:14:08;;;;;;;;;;;;;;;21.06;48.52;99365.63;20385382;28;99753;-75
2021/12/06 07:24:08;;;;;;;;;;;;;;;21.08;48.31;99390.00;20383145;28;98005;-77
2021/12/06 07:34:09;;;;;;;;;;;;;;;21.15;48.24;99389.44;20372467;28;98394;-78
2021/12/06 07:44:09;;;;;;;;;;;;;;;21.23;48.09;99394.81;20337106;28;98690;-80
2021/12/06 07:54:10;;;;;;;;;;;;;;;21.22;48.36;99391.34;20367967;28;97478;-78
2021/12/06 08:04:11;;;;;;;;;;;;;;;21.26;48.08;99394.50;20402189;28;98320;-78
2021/12/06 08:14:11;;;;;;;;;;;;;;;21.22;47.53;99407.13;20406937;28;98432;-79
2021/12/06 08:24:12;;;;;;;;;;;;;;;21.22;47.19;99407.13;20373243;28;97762;-78
2021/12/06 08:34:12;;;;;;;;;;;;;;;21.22;47.71;99428.19;20358428;28;97160;-77
2021/12/06 08:44:14;;;;;;;;;;;;;;;21.21;47.71;99417.81;20367245;28;98193;-77
2021/12/06 08:54:17;;;;;;;;;;;;;;;21.30;46.95;99429.28;20368170;28;97323;-80
2021/12/06 09:04:21;;;;;;;;;;;;;;;21.27;47.28;99433.84;20390989;28;97384;-80
2021/12/06 09:14:21;;;;;;;;;;;;;;;21.22;47.33;99430.81;20419514;28;96975;-81
2021/12/06 09:24:23;;;;;;;;;;;;;;;21.23;47.02;99416.69;20408171;28;97577;-80
2021/12/06 09:34:23;;;;;;;;;;;;;;;21.24;46.83;99401.75;20392421;28;96989;-78
2021/12/06 09:44:24;;;;;;;;;;;;;;;21.26;46.73;99405.03;20421010;28;97115;-80
2021/12/06 09:54:26;;;;;;;;;;;;;;;21.26;46.67;99407.69;20415004;28;98286;-79
2021/12/06 10:04:29;;;;;;;;;;;;;;;21.23;46.81;99392.19;20414773;28;97585;-80
2021/12/06 10:14:29;;;;;;;;;;;;;;;21.20;46.71;99381.94;20424533;28;97139;-81
2021/12/06 10:24:30;;;;;;;;;;;;;;;21.31;46.92;99368.56;20413555;28;96995;-79
2021/12/06 10:34:30;;;;;;;;;;;;;;;21.33;46.77;99369.25;20390444;28;97088;-79
2021/12/06 10:44:32;;;;;;;;;;;;;;;21.39;46.71;99400.28;20401194;28;96879;-78
2021/12/06 10:54:36;;;;;;;;;;;;;;;21.53;46.88;99427.97;20346925;28;97036;-78
2021/12/06 11:04:38;;;;;;;;;;;;;;;21.52;47.36;99446.53;20318427;28;97735;-79
2021/12/06 11:14:39;;;;;;;;;;;;;;;21.48;47.33;99432.81;20325712;28;97278;-80
2021/12/06 11:24:45;;;;;;;;;;;;;;;21.47;47.59;99472.47;20333514;28;96951;-79
2021/12/06 11:34:48;;;;;;;;;;;;;;;21.37;47.31;99476.00;20339783;28;97440;-78
2021/12/06 11:44:48;;;;;;;;;;;;;;;21.42;47.69;99472.91;20257317;28;97830;-79
2021/12/06 11:55:09;;;;;;;;;;;;;;;21.36;45.97;99473.47;20351662;28;97537;-79
2021/12/06 12:05:10;;;;;;;;;;;;;;;21.36;46.79;99469.06;20382812;28;97104;-76
2021/12/06 12:15:10;;;;;;;;;;;;;;;21.35;46.53;99462.13;20388758;28;96898;-76
2021/12/06 12:25:21;;;;;;;;;;;;;;;21.35;46.52;99433.16;20376968;28;97674;-78
2021/12/06 12:35:22;;;;;;;;;;;;;;;21.37;46.62;99433.00;20412363;28;96968;-79
2021/12/06 12:45:23;;;;;;;;;;;;;;;21.35;46.71;99442.84;20435399;28;97851;-80
2021/12/06 12:55:24;;;;;;;;;;;;;;;21.39;46.46;99450.31;20430868;28;96956;-80
2021/12/06 13:05:26;;;;;;;;;;;;;;;21.39;46.35;99468.75;20445529;28;97078;-81
2021/12/06 13:15:53;;;;;;;;;;;;;;;21.35;46.22;99483.19;20430891;28;97894;-80
2021/12/06 13:26:07;;;;;;;;;;;;;;;21.34;46.32;99494.69;20441455;28;97354;-80
2021/12/06 13:36:07;;;;;;;;;;;;;;;21.38;46.15;99490.78;20435280;28;97611;-79
2021/12/06 13:46:25;;;;;;;;;;;;;;;21.35;45.62;99485.81;20410044;28;97927;-78
2021/12/06 13:56:37;;;;;;;;;;;;;;;21.32;45.86;99499.25;20443170;28;97434;-78
2021/12/06 14:06:46;;;;;;;;;;;;;;;21.30;45.79;99517.03;20425876;28;100623;-78
2021/12/06 14:16:49;;;;;;;;;;;;;;;21.26;45.68;99515.63;20396702;28;97371;-76
2021/12/06 14:26:50;;;;;;;;;;;;;;;21.28;46.01;99537.38;20388699;28;99354;-78
2021/12/06 14:36:50;;;;;;;;;;;;;;;21.24;46.12;99541.28;20348154;28;97248;-77
2021/12/06 14:46:51;;;;;;;;;;;;;;;21.21;45.35;99533.66;20361543;28;98469;-77
2021/12/06 14:56:57;;;;;;;;;;;;;;;21.06;45.87;99538.50;20386158;28;97499;-78
2021/12/06 15:06:58;;;;;;;;;;;;;;;21.05;45.75;99542.09;20390105;28;96899;-78
2021/12/06 15:16:59;;;;;;;;;;;;;;;21.06;46.45;99549.03;20384423;28;97132;-77
2021/12/06 15:27:01;;;;;;;;;;;;;;;21.00;46.22;99554.88;20364091;28;97060;-78
2021/12/06 15:37:02;;;;;;;;;;;;;;;21.00;45.77;99555.69;20394026;28;98178;-79
2021/12/06 15:47:17;;;;;;;;;;;;;;;21.23;47.08;99566.75;20379714;28;97302;-80
2021/12/06 15:57:21;;;;;;;;;;;;;;;21.33;47.32;99577.28;20395394;28;99748;-79
2021/12/06 16:07:26;;;;;;;;;;;;;;;21.38;47.75;99590.03;20385303;28;97615;-78
2021/12/06 16:17:32;;;;;;;;;;;;;;;21.40;47.80;99622.34;20397686;28;98873;-78
2021/12/06 16:27:32;;;;;;;;;;;;;;;21.37;48.11;99644.53;20388904;28;97370;-76
2021/12/06 16:37:34;;;;;;;;;;;;;;;21.25;47.36;99651.72;20399871;28;96932;-76
2021/12/06 16:47:36;;;;;;;;;;;;;;;21.39;47.73;99663.63;20388778;28;97101;-76
2021/12/06 16:57:39;;;;;;;;;;;;;;;21.38;47.58;99690.94;20388781;28;100435;-76
2021/12/06 17:07:41;;;;;;;;;;;;;;;21.46;47.81;99697.31;20394298;28;97001;-73
2021/12/06 17:17:50;;;;;;;;;;;;;;;21.39;47.79;99691.78;20377883;28;98168;-76
2021/12/06 17:27:51;;;;;;;;;;;;;;;21.36;47.77;99685.00;20396490;28;97971;-74
2021/12/06 17:37:51;;;;;;;;;;;;;;;21.41;47.47;99680.16;20365630;28;98246;-74
2021/12/06 17:47:52;;;;;;;;;;;;;;;21.35;47.41;99682.47;20395755;28;101027;-74
2021/12/06 17:58:00;;;;;;;;;;;;;;;21.25;47.75;99695.63;20394442;28;97049;-75
2021/12/06 18:08:01;;;;;;;;;;;;;;;21.22;47.99;99696.75;20399084;28;96997;-75
2021/12/06 18:18:02;;;;;;;;;;;;;;;21.22;48.40;99694.09;20394913;28;97595;-75
2021/12/06 18:28:05;;;;;;;;;;;;;;;21.21;48.20;99689.81;20382905;28;97496;-75
2021/12/06 18:38:13;;;;;;;;;;;;;;;21.31;49.21;99696.91;20359543;28;98279;-73
2021/12/06 18:48:13;;;;;;;;;;;;;;;21.25;48.47;99693.84;20356325;28;99567;-75
2021/12/06 18:58:14;;;;;;;;;;;;;;;21.27;48.73;99691.06;20378981;28;98121;-75
2021/12/06 19:08:15;;;;;;;;;;;;;;;21.19;49.35;99691.75;20380153;28;102528;-73
2021/12/06 19:18:15;;;;;;;;;;;;;;;21.13;49.56;99691.47;20386743;28;99327;-75
2021/12/06 19:28:16;;;;;;;;;;;;;;;21.15;49.55;99695.63;20362220;28;100210;-74
2021/12/06 19:38:17;;;;;;;;;;;;;;;21.17;49.11;99698.13;20360617;28;96909;-76
2021/12/06 19:48:18;;;;;;;;;;;;;;;21.17;49.00;99719.19;20386963;28;97012;-74
2021/12/06 19:58:24;;;;;;;;;;;;;;;21.17;49.61;99722.66;20388515;28;101386;-75
2021/12/06 20:08:24;;;;;;;;;;;;;;;21.18;49.94;99719.06;20370308;28;97746;-76
2021/12/06 20:18:27;;;;;;;;;;;;;;;21.13;49.58;99723.03;20382287;28;97123;-75
2021/12/06 20:28:27;;;;;;;;;;;;;;;21.06;49.65;99715.69;20393256;28;97040;-76
2021/12/06 20:38:28;;;;;;;;;;;;;;;21.01;49.93;99709.19;20380271;28;97301;-76
2021/12/06 20:48:28;;;;;;;;;;;;;;;21.03;49.51;99699.34;20378422;28;97545;-77
2021/12/06 20:58:29;;;;;;;;;;;;;;;20.95;49.68;99714.00;20389079;28;97846;-77
2021/12/06 21:08:32;;;;;;;;;;;;;;;20.90;49.76;99725.91;20368513;28;97913;-78
2021/12/06 21:18:33;;;;;;;;;;;;;;;20.89;49.52;99724.25;20401834;28;97240;-78
2021/12/06 21:28:34;;;;;;;;;;;;;;;20.85;49.68;99728.06;20395261;28;100345;-78
2021/12/06 21:38:34;;;;;;;;;;;;;;;20.82;49.11;99737.06;20377562;28;97827;-78
2021/12/06 21:48:35;;;;;;;;;;;;;;;20.78;49.57;99775.16;20393512;28;97870;-77
2021/12/06 21:58:39;;;;;;;;;;;;;;;20.75;49.41;99744.69;20383897;28;98055;-77
2021/12/06 22:08:40;;;;;;;;;;;;;;;20.69;49.15;99744.31;20381802;28;100794;-77
2021/12/06 22:18:41;;;;;;;;;;;;;;;20.67;49.07;99727.84;20397854;28;97313;-77
2021/12/06 22:28:41;;;;;;;;;;;;;;;20.64;48.88;99731.56;20393580;28;97163;-77
2021/12/06 22:38:42;;;;;;;;;;;;;;;20.60;48.62;99723.13;20388983;28;97175;-77
2021/12/06 22:48:42;;;;;;;;;;;;;;;20.58;48.88;99737.34;20397545;28;98073;-77
2021/12/06 22:58:43;;;;;;;;;;;;;;;20.54;48.82;99726.25;20393115;28;97021;-77
2021/12/06 23:08:43;;;;;;;;;;;;;;;20.55;48.58;99737.63;20394076;28;96976;-76
2021/12/06 23:18:45;;;;;;;;;;;;;;;20.53;48.72;99721.13;20367310;28;101908;-77
2021/12/06 23:28:46;;;;;;;;;;;;;;;20.47;48.67;99712.81;20368445;28;97784;-77
2021/12/06 23:39:05;;;;;;;;;;;;;;;20.43;48.78;99710.56;20368009;28;97920;-77
2021/12/06 23:49:06;;;;;;;;;;;;;;;20.40;48.58;99692.44;20340562;28;97138;-77
2021/12/06 23:59:07;;;;;;;;;;;;;;;20.38;48.68;99679.38;20381989;28;97590;-78
